Time;durP1;ratioP1;P1;durP2;ratioP2;P2;SDS_P1;SDS_P2;PMS_P1;PMS_P2;Temp;Humidity;BMP_temperature;BMP_pressure;BME280_temperature;BME280_humidity;BME280_pressure;Samples;Min_cycle;Max_cycle;Signal;HPM_P1;HPM_P2
2021/10/03 00:01:02;;;;;;;3.97;3.78;;;18.60;80.90;;;;;;5064949;28;20041;-83
2021/10/03 00:03:28;;;;;;;4.07;3.88;;;18.60;80.90;;;;;;5059779;28;20029;-83
2021/10/03 00:05:57;;;;;;;3.72;3.53;;;18.60;80.90;;;;;;5031735;28;20383;-84
2021/10/03 00:08:24;;;;;;;3.80;3.60;;;18.60;80.90;;;;;;5064913;28;20037;-84
2021/10/03 00:10:51;;;;;;;3.70;3.50;;;18.60;80.90;;;;;;5031545;28;20400;-82
2021/10/03 00:13:17;;;;;;;3.72;3.53;;;18.60;80.90;;;;;;5046800;28;20038;-83
2021/10/03 00:15:43;;;;;;;3.60;3.42;;;18.60;80.90;;;;;;5028425;28;20042;-83
2021/10/03 00:18:09;;;;;;;3.40;3.30;;;18.60;80.90;;;;;;5022720;28;20489;-83
2021/10/03 00:20:36;;;;;;;3.55;3.35;;;18.60;80.90;;;;;;5032347;28;20045;-83
2021/10/03 00:23:02;;;;;;;3.50;3.38;;;18.60;80.90;;;;;;5059687;28;20034;-83
2021/10/03 00:25:29;;;;;;;4.25;4.05;;;18.60;80.90;;;;;;5029253;28;20377;-83
2021/10/03 00:27:55;;;;;;;4.03;3.83;;;18.60;80.90;;;;;;5032481;28;20399;-83
2021/10/03 00:30:21;;;;;;;3.78;3.58;;;18.60;81.00;;;;;;5024159;28;20034;-83
2021/10/03 00:32:47;;;;;;;4.25;3.95;;;18.60;81.00;;;;;;5031861;28;20104;-83
2021/10/03 00:35:13;;;;;;;3.35;3.20;;;18.60;81.00;;;;;;5029140;28;20033;-83
2021/10/03 00:37:40;;;;;;;3.80;3.60;;;18.60;81.00;;;;;;5031705;28;20033;-83
2021/10/03 00:40:06;;;;;;;3.55;3.35;;;18.60;81.80;;;;;;5030592;28;20030;-83
2021/10/03 00:42:33;;;;;;;3.65;3.45;;;18.60;81.00;;;;;;5030787;28;20042;-83
2021/10/03 00:44:59;;;;;;;3.30;3.20;;;18.60;81.00;;;;;;5028768;28;20041;-83
2021/10/03 00:47:25;;;;;;;3.75;3.55;;;18.60;81.00;;;;;;5029887;28;20507;-83
2021/10/03 00:49:51;;;;;;;3.75;3.55;;;18.60;81.00;;;;;;5024338;28;20038;-83
2021/10/03 00:52:17;;;;;;;4.43;4.05;;;18.60;81.00;;;;;;5032216;28;20395;-83
2021/10/03 00:54:43;;;;;;;4.00;3.80;;;18.60;81.00;;;;;;5035886;28;20029;-83
2021/10/03 00:57:09;;;;;;;4.00;3.80;;;18.60;81.00;;;;;;5028088;28;20026;-83
2021/10/03 00:59:36;;;;;;;5.20;4.90;;;18.60;81.00;;;;;;5029525;28;20057;-82
2021/10/03 01:02:02;;;;;;;4.10;3.90;;;18.60;81.00;;;;;;5031702;28;20040;-82
2021/10/03 01:04:28;;;;;;;3.92;3.72;;;18.60;81.00;;;;;;5029714;28;20033;-82
2021/10/03 01:06:54;;;;;;;4.78;4.55;;;18.60;80.90;;;;;;5030434;28;20107;-83
2021/10/03 01:09:21;;;;;;;4.40;4.20;;;18.70;80.90;;;;;;5064027;28;20033;-84
2021/10/03 01:11:47;;;;;;;3.55;3.42;;;18.70;80.90;;;;;;5029771;28;20025;-83
2021/10/03 01:14:15;;;;;;;4.05;3.85;;;18.70;80.90;;;;;;5028233;28;20423;-82
2021/10/03 01:16:41;;;;;;;3.83;3.63;;;18.70;80.90;;;;;;5029978;28;20064;-83
2021/10/03 01:19:07;;;;;;;3.90;3.70;;;18.70;80.80;;;;;;5031361;28;20033;-83
2021/10/03 01:21:33;;;;;;;3.80;3.60;;;18.70;80.80;;;;;;5046039;28;20022;-83
2021/10/03 01:24:00;;;;;;;3.92;3.72;;;18.70;80.70;;;;;;5031492;28;20468;-83
2021/10/03 01:26:27;;;;;;;3.70;3.50;;;18.70;80.70;;;;;;5023924;28;20408;-83
2021/10/03 01:28:53;;;;;;;3.63;3.45;;;18.70;80.70;;;;;;5021814;28;20056;-83
2021/10/03 01:31:21;;;;;;;4.07;3.80;;;18.70;80.70;;;;;;5031700;28;20038;-83
2021/10/03 01:33:47;;;;;;;3.28;3.17;;;18.70;80.70;;;;;;5026507;28;20056;-83
2021/10/03 01:36:13;;;;;;;3.38;3.28;;;18.70;80.70;;;;;;5014493;28;20033;-82
2021/10/03 01:38:39;;;;;;;3.60;3.40;;;18.80;80.70;;;;;;5029619;28;20037;-83
2021/10/03 01:41:05;;;;;;;3.70;3.50;;;18.70;80.60;;;;;;5028285;28;20038;-83
2021/10/03 01:43:31;;;;;;;3.75;3.55;;;18.80;80.70;;;;;;5028111;28;20507;-83
2021/10/03 01:45:57;;;;;;;3.47;3.38;;;18.70;80.70;;;;;;5031217;28;20496;-83
2021/10/03 01:48:24;;;;;;;4.00;3.80;;;18.70;80.70;;;;;;5031098;28;20056;-83
2021/10/03 01:50:51;;;;;;;3.65;3.45;;;18.70;80.70;;;;;;5030435;28;20025;-82
2021/10/03 01:53:42;;;;;;;3.10;3.00;;;18.70;80.70;;;;;;5029040;28;20025;-83
2021/10/03 01:56:08;;;;;;;3.85;3.65;;;18.60;80.80;;;;;;5053557;28;20034;-83
2021/10/03 01:58:43;;;;;;;3.35;3.25;;;18.60;80.80;;;;;;5030183;28;20045;-82
2021/10/03 02:01:20;;;;;;;3.78;3.58;;;18.50;80.90;;;;;;5043802;28;20052;-83
2021/10/03 02:03:47;;;;;;;3.35;3.25;;;18.50;81.00;;;;;;5056820;28;20060;-83
2021/10/03 02:06:13;;;;;;;3.45;3.30;;;18.40;81.10;;;;;;5027161;28;20384;-82
2021/10/03 02:08:39;;;;;;;3.90;3.70;;;18.40;81.20;;;;;;5022852;28;20427;-83
2021/10/03 02:11:05;;;;;;;4.32;4.13;;;18.30;81.10;;;;;;5042683;28;20056;-82
2021/10/03 02:13:32;;;;;;;6.30;6.00;;;18.30;81.20;;;;;;5026147;28;20030;-83
2021/10/03 02:16:01;;;;;;;8.20;7.80;;;18.20;82.00;;;;;;5028158;28;20030;-83
2021/10/03 02:18:39;;;;;;;13.10;12.50;;;18.10;81.20;;;;;;5044747;28;20041;-82
2021/10/03 02:21:06;;;;;;;19.50;18.60;;;17.90;81.30;;;;;;5029300;28;20044;-82
2021/10/03 02:23:33;;;;;;;14.63;13.95;;;17.70;81.80;;;;;;5028135;28;20384;-81
2021/10/03 02:25:59;;;;;;;4.25;4.05;;;17.60;82.10;;;;;;5027175;28;20041;-82
2021/10/03 02:28:25;;;;;;;3.85;3.65;;;17.50;82.10;;;;;;5029358;28;20052;-82
2021/10/03 02:30:54;;;;;;;6.20;5.90;;;17.50;82.20;;;;;;5025640;28;20380;-82
2021/10/03 02:33:20;;;;;;;7.03;6.72;;;17.50;82.10;;;;;;5029015;28;20037;-82
2021/10/03 02:35:47;;;;;;;7.63;7.28;;;17.40;82.10;;;;;;5029380;28;20038;-82
2021/10/03 02:38:14;;;;;;;8.65;8.25;;;17.40;82.10;;;;;;5029796;28;20033;-81
2021/10/03 02:40:41;;;;;;;7.40;7.10;;;17.40;82.00;;;;;;5030918;28;20022;-82
2021/10/03 02:43:08;;;;;;;17.33;16.52;;;17.20;81.90;;;;;;5011018;28;20030;-82
2021/10/03 02:45:41;;;;;;;6.60;6.30;;;17.20;82.20;;;;;;5028808;28;20033;-82
2021/10/03 02:48:07;;;;;;;4.07;3.88;;;17.00;82.20;;;;;;5029483;28;20040;-82
2021/10/03 02:50:33;;;;;;;9.20;8.80;;;16.90;82.30;;;;;;5030270;28;20424;-82
2021/10/03 02:52:59;;;;;;;4.63;4.43;;;16.90;82.50;;;;;;5028883;28;20033;-81
2021/10/03 02:55:26;;;;;;;5.85;5.57;;;16.80;82.60;;;;;;5030031;28;20042;-81
2021/10/03 02:57:52;;;;;;;3.05;2.95;;;16.80;82.60;;;;;;5028632;28;20415;-82
2021/10/03 03:00:18;;;;;;;2.80;2.70;;;16.80;82.60;;;;;;5027977;28;20053;-82
2021/10/03 03:02:44;;;;;;;3.65;3.45;;;16.70;82.50;;;;;;5030598;28;20033;-82
2021/10/03 03:05:11;;;;;;;4.32;4.13;;;16.80;82.60;;;;;;5033332;28;20042;-82
2021/10/03 03:07:37;;;;;;;3.00;2.90;;;16.80;82.50;;;;;;5064350;28;20464;-82
2021/10/03 03:10:05;;;;;;;2.85;2.75;;;16.80;82.30;;;;;;5031290;28;20064;-82
2021/10/03 03:12:31;;;;;;;3.40;3.28;;;16.80;82.30;;;;;;5015418;28;20033;-82
2021/10/03 03:14:58;;;;;;;2.90;2.80;;;16.80;82.30;;;;;;5031752;28;20033;-82
2021/10/03 03:17:24;;;;;;;3.10;3.00;;;16.80;82.20;;;;;;5033029;28;20033;-82
2021/10/03 03:19:50;;;;;;;2.97;2.88;;;16.80;82.20;;;;;;5033157;28;20025;-82
2021/10/03 03:22:16;;;;;;;2.60;2.50;;;16.80;82.20;;;;;;5032164;28;20507;-82
2021/10/03 03:24:42;;;;;;;2.55;2.45;;;16.80;82.10;;;;;;5033213;28;20036;-82
2021/10/03 03:27:09;;;;;;;2.70;2.60;;;16.80;82.10;;;;;;5034049;28;20041;-82
2021/10/03 03:29:35;;;;;;;2.70;2.60;;;16.80;82.10;;;;;;5032430;28;20041;-83
2021/10/03 03:32:01;;;;;;;2.45;2.35;;;16.80;82.10;;;;;;5032584;28;20053;-83
2021/10/03 03:34:27;;;;;;;2.50;2.40;;;16.80;82.10;;;;;;5034267;28;20512;-83
2021/10/03 03:36:54;;;;;;;2.60;2.50;;;16.80;82.10;;;;;;5064955;28;20033;-82
2021/10/03 03:39:20;;;;;;;2.40;2.30;;;16.70;82.10;;;;;;5048643;28;20048;-82
2021/10/03 03:41:46;;;;;;;2.53;2.42;;;16.80;82.10;;;;;;5028836;28;20029;-82
2021/10/03 03:44:12;;;;;;;2.83;2.72;;;16.80;82.00;;;;;;5026740;28;20381;-82
2021/10/03 03:46:38;;;;;;;2.65;2.55;;;16.80;81.90;;;;;;5032263;28;20392;-82
2021/10/03 03:49:04;;;;;;;2.72;2.63;;;16.70;81.90;;;;;;5032063;28;20037;-82
2021/10/03 03:51:30;;;;;;;2.80;2.70;;;16.70;82.00;;;;;;5033169;28;20021;-83
2021/10/03 03:53:56;;;;;;;2.65;2.55;;;16.70;82.00;;;;;;5015162;28;20048;-83
2021/10/03 03:56:22;;;;;;;2.67;2.58;;;16.80;82.00;;;;;;5031338;28;20041;-82
2021/10/03 03:58:49;;;;;;;2.45;2.35;;;16.80;82.00;;;;;;5025431;28;20484;-83
2021/10/03 04:01:15;;;;;;;3.25;3.15;;;16.80;81.90;;;;;;5032308;28;20045;-83
2021/10/03 04:03:41;;;;;;;2.65;2.55;;;16.80;81.90;;;;;;5061900;28;20025;-83
2021/10/03 04:06:07;;;;;;;2.70;2.60;;;16.70;81.90;;;;;;5031731;28;20025;-83
2021/10/03 04:08:33;;;;;;;2.58;2.47;;;16.70;82.00;;;;;;5031318;28;20037;-82
2021/10/03 04:10:59;;;;;;;3.13;3.03;;;16.60;82.10;;;;;;5045528;28;20040;-82
2021/10/03 04:13:25;;;;;;;3.22;3.13;;;16.70;82.10;;;;;;5029258;28;20036;-82
2021/10/03 04:15:51;;;;;;;2.70;2.60;;;16.60;82.10;;;;;;5030150;28;20397;-83
2021/10/03 04:18:17;;;;;;;3.10;2.90;;;16.60;82.20;;;;;;5033166;28;20029;-84
2021/10/03 04:20:43;;;;;;;2.70;2.60;;;16.60;82.20;;;;;;5031187;28;20044;-83
2021/10/03 04:23:09;;;;;;;2.67;2.58;;;16.60;82.10;;;;;;5030517;28;20025;-83
2021/10/03 04:25:36;;;;;;;2.67;2.58;;;16.60;82.10;;;;;;5030452;28;20052;-83
2021/10/03 04:28:02;;;;;;;2.90;2.67;;;16.70;82.10;;;;;;5030276;28;20040;-83
2021/10/03 04:30:28;;;;;;;2.60;2.50;;;16.70;81.90;;;;;;5062115;28;20041;-83
2021/10/03 04:32:54;;;;;;;2.70;2.60;;;16.70;82.00;;;;;;5029744;28;20041;-83
2021/10/03 04:35:20;;;;;;;2.55;2.45;;;16.80;82.10;;;;;;5028659;28;20384;-83
2021/10/03 04:37:46;;;;;;;2.50;2.40;;;16.80;81.90;;;;;;5031362;28;20060;-84
2021/10/03 04:40:12;;;;;;;2.53;2.42;;;16.80;81.90;;;;;;5030666;28;20030;-83
2021/10/03 04:42:38;;;;;;;2.55;2.45;;;16.80;81.90;;;;;;5030120;28;20075;-83
2021/10/03 04:45:05;;;;;;;2.67;2.58;;;16.80;81.90;;;;;;5030603;28;20509;-83
2021/10/03 04:47:31;;;;;;;2.90;2.80;;;16.80;81.80;;;;;;5032177;28;20384;-83
2021/10/03 04:50:00;;;;;;;2.75;2.65;;;16.80;81.80;;;;;;5030974;28;20044;-83
2021/10/03 04:52:26;;;;;;;2.78;2.67;;;16.80;81.80;;;;;;5030475;28;20032;-84
2021/10/03 04:54:53;;;;;;;2.85;2.75;;;16.90;81.80;;;;;;5030330;28;20042;-83
2021/10/03 04:57:19;;;;;;;2.88;2.78;;;16.90;81.80;;;;;;5055012;28;20408;-83
2021/10/03 04:59:45;;;;;;;2.88;2.78;;;16.90;81.80;;;;;;5030748;28;20509;-84
2021/10/03 05:02:11;;;;;;;2.72;2.63;;;16.90;81.80;;;;;;5028582;28;20515;-84
2021/10/03 05:04:37;;;;;;;3.03;2.92;;;16.90;81.70;;;;;;5029078;28;20399;-84
2021/10/03 05:07:04;;;;;;;3.00;2.90;;;16.90;81.70;;;;;;5030066;28;20026;-84
2021/10/03 05:09:30;;;;;;;2.85;2.75;;;17.00;81.70;;;;;;5030190;28;20037;-84
2021/10/03 05:11:56;;;;;;;3.13;3.03;;;17.00;82.50;;;;;;5029989;28;20030;-85
2021/10/03 05:14:22;;;;;;;3.10;3.00;;;17.00;81.70;;;;;;5028389;28;20045;-84
2021/10/03 05:16:48;;;;;;;3.05;2.95;;;17.00;81.70;;;;;;5046069;28;20041;-83
2021/10/03 05:19:14;;;;;;;3.05;2.95;;;17.00;81.70;;;;;;5044443;28;20411;-83
2021/10/03 05:21:40;;;;;;;3.22;3.13;;;17.00;81.70;;;;;;5030625;28;20025;-83
2021/10/03 05:24:07;;;;;;;3.58;3.38;;;17.00;81.70;;;;;;5030860;28;20034;-84
2021/10/03 05:26:33;;;;;;;2.90;2.80;;;17.00;81.70;;;;;;5029753;28;20037;-84
2021/10/03 05:28:59;;;;;;;3.10;3.00;;;17.00;81.70;;;;;;5030725;28;20041;-83
2021/10/03 05:31:25;;;;;;;3.28;3.17;;;17.00;81.70;;;;;;5029519;28;20424;-83
2021/10/03 05:33:51;;;;;;;3.35;3.25;;;17.10;81.70;;;;;;5060622;28;20032;-83
2021/10/03 05:36:17;;;;;;;3.10;3.00;;;17.10;81.70;;;;;;5063326;28;20040;-83
2021/10/03 05:38:43;;;;;;;3.45;3.15;;;17.10;81.60;;;;;;5028935;28;20037;-84
2021/10/03 05:41:10;;;;;;;3.35;3.25;;;17.10;81.70;;;;;;5010194;28;20063;-83
2021/10/03 05:43:37;;;;;;;5.93;5.65;;;17.10;81.70;;;;;;4993119;28;20053;-83
2021/10/03 05:46:05;;;;;;;8.98;8.57;;;17.00;81.30;;;;;;5024776;28;20404;-83
2021/10/03 05:48:32;;;;;;;8.27;7.88;;;16.70;81.10;;;;;;5028141;28;20056;-82
2021/10/03 05:50:58;;;;;;;5.18;4.97;;;16.30;81.30;;;;;;5031478;28;20403;-82
2021/10/03 05:53:24;;;;;;;3.28;3.17;;;16.00;82.10;;;;;;5029471;28;20037;-83
2021/10/03 05:55:51;;;;;;;3.67;3.47;;;15.70;82.60;;;;;;5026754;28;20036;-86
2021/10/03 05:58:17;;;;;;;3.13;3.03;;;15.60;83.00;;;;;;5028748;28;20032;-81
2021/10/03 06:00:43;;;;;;;3.47;3.30;;;15.40;83.00;;;;;;5022717;28;20288;-81
2021/10/03 06:03:09;;;;;;;3.13;3.03;;;15.20;83.20;;;;;;5030248;28;20030;-81
2021/10/03 06:05:35;;;;;;;2.75;2.65;;;15.10;83.50;;;;;;5074397;28;20501;-80
2021/10/03 06:08:01;;;;;;;2.70;2.60;;;15.00;83.50;;;;;;5036459;28;20032;-82
2021/10/03 06:10:27;;;;;;;2.60;2.50;;;15.00;83.50;;;;;;5030734;28;20037;-84
2021/10/03 06:12:55;;;;;;;2.60;2.50;;;14.90;83.60;;;;;;5034443;28;20037;-81
2021/10/03 06:15:21;;;;;;;2.60;2.50;;;14.90;83.60;;;;;;5030537;28;20049;-82
2021/10/03 06:17:47;;;;;;;2.60;2.50;;;14.80;83.50;;;;;;5030576;28;20029;-81
2021/10/03 06:20:13;;;;;;;2.67;2.58;;;14.80;83.50;;;;;;5031152;28;20033;-80
2021/10/03 06:22:46;;;;;;;2.72;2.63;;;14.70;83.50;;;;;;5070189;28;20025;-81
2021/10/03 06:25:13;;;;;;;2.70;2.60;;;14.70;83.40;;;;;;5031211;28;20053;-82
2021/10/03 06:27:39;;;;;;;2.70;2.60;;;14.70;83.50;;;;;;5054997;28;20042;-81
2021/10/03 06:30:06;;;;;;;2.80;2.70;;;14.70;83.50;;;;;;5029760;28;20037;-81
2021/10/03 06:32:32;;;;;;;2.97;2.88;;;14.70;83.40;;;;;;5030740;28;20036;-82
2021/10/03 06:34:58;;;;;;;2.88;2.78;;;14.70;83.30;;;;;;5030946;28;20038;-82
2021/10/03 06:37:24;;;;;;;2.80;2.70;;;14.70;83.30;;;;;;5032461;28;20526;-80
2021/10/03 06:39:50;;;;;;;2.95;2.85;;;14.70;83.20;;;;;;5040958;28;20029;-81
2021/10/03 06:42:16;;;;;;;2.90;2.80;;;14.70;83.10;;;;;;5034166;28;20033;-80
2021/10/03 06:44:42;;;;;;;2.83;2.72;;;14.80;83.10;;;;;;5034270;28;20032;-80
2021/10/03 06:47:09;;;;;;;2.80;2.70;;;14.70;83.00;;;;;;5031237;28;20037;-80
2021/10/03 06:49:36;;;;;;;2.83;2.72;;;14.80;82.90;;;;;;5033199;28;20049;-80
2021/10/03 06:52:02;;;;;;;2.85;2.70;;;14.80;82.90;;;;;;5035187;28;20048;-81
2021/10/03 06:54:28;;;;;;;2.70;2.60;;;14.80;82.80;;;;;;5035096;28;20416;-81
2021/10/03 06:56:54;;;;;;;2.60;2.50;;;14.80;82.70;;;;;;5034000;28;20029;-81
2021/10/03 06:59:20;;;;;;;2.72;2.63;;;14.80;82.70;;;;;;5032952;28;20052;-82
2021/10/03 07:01:47;;;;;;;2.70;2.60;;;14.80;82.70;;;;;;5033458;28;20045;-83
2021/10/03 07:04:13;;;;;;;2.60;2.50;;;14.80;82.70;;;;;;5033573;28;20038;-83
2021/10/03 07:06:39;;;;;;;2.70;2.60;;;14.90;82.70;;;;;;5030276;28;20041;-82
2021/10/03 07:09:05;;;;;;;2.70;2.60;;;14.90;82.60;;;;;;5033505;28;20037;-80
2021/10/03 07:11:31;;;;;;;2.60;2.50;;;14.90;82.40;;;;;;5034621;28;20038;-81
2021/10/03 07:13:58;;;;;;;2.63;2.53;;;14.90;82.40;;;;;;5039905;28;20029;-81
2021/10/03 07:16:24;;;;;;;2.80;2.70;;;14.90;82.40;;;;;;5034190;28;20037;-86
2021/10/03 07:18:50;;;;;;;2.88;2.78;;;15.00;82.50;;;;;;5066274;28;20036;-82
2021/10/03 07:21:16;;;;;;;2.60;2.50;;;15.00;82.40;;;;;;5031717;28;20469;-80
2021/10/03 07:23:42;;;;;;;2.78;2.67;;;15.00;82.30;;;;;;5034628;28;20052;-82
2021/10/03 07:26:08;;;;;;;2.50;2.40;;;15.00;82.30;;;;;;5034116;28;20460;-84
2021/10/03 07:28:35;;;;;;;2.60;2.50;;;15.10;82.30;;;;;;5034076;28;20038;-82
2021/10/03 07:31:02;;;;;;;3.03;2.83;;;15.10;82.10;;;;;;5065947;28;20057;-85
2021/10/03 07:33:28;;;;;;;2.60;2.50;;;15.20;82.10;;;;;;5049844;28;20037;-82
2021/10/03 07:35:54;;;;;;;2.88;2.78;;;15.20;82.70;;;;;;5034295;28;20391;-83
2021/10/03 07:38:20;;;;;;;2.85;2.75;;;15.20;81.90;;;;;;5034325;28;20039;-82
2021/10/03 07:40:47;;;;;;;2.85;2.75;;;15.30;82.00;;;;;;5034296;28;20418;-81
2021/10/03 07:43:13;;;;;;;2.90;2.80;;;15.30;81.90;;;;;;5034093;28;20034;-80
2021/10/03 07:45:40;;;;;;;2.83;2.72;;;15.30;81.80;;;;;;5038393;28;20637;-82
2021/10/03 07:48:06;;;;;;;2.97;2.88;;;15.30;81.70;;;;;;5033288;28;20038;-82
2021/10/03 07:50:32;;;;;;;3.10;3.00;;;15.30;81.70;;;;;;5033585;28;20045;-84
2021/10/03 07:52:58;;;;;;;2.90;2.80;;;15.40;81.70;;;;;;5016913;28;20033;-87
2021/10/03 07:55:28;;;;;;;3.08;2.97;;;15.40;81.70;;;;;;5043931;28;20029;-86
2021/10/03 07:58:02;;;;;;;3.13;3.03;;;15.40;82.50;;;;;;5047037;28;20052;-86
2021/10/03 08:00:30;;;;;;;3.10;3.00;;;15.40;81.70;;;;;;5061260;28;20037;-85
2021/10/03 08:02:56;;;;;;;2.90;2.80;;;15.50;81.80;;;;;;5016011;28;20044;-86
2021/10/03 08:05:23;;;;;;;3.05;2.95;;;15.50;81.60;;;;;;5035659;28;20037;-87
2021/10/03 08:07:49;;;;;;;3.10;3.00;;;15.50;81.60;;;;;;5039806;28;20065;-88
2021/10/03 08:10:15;;;;;;;3.70;3.50;;;15.60;81.50;;;;;;5064883;28;20053;-87
2021/10/03 08:12:41;;;;;;;4.10;3.90;;;15.60;81.40;;;;;;5046486;28;20492;-87
2021/10/03 08:15:07;;;;;;;4.05;3.85;;;15.60;81.30;;;;;;5025122;28;20056;-84
2021/10/03 08:17:34;;;;;;;3.83;3.63;;;15.60;81.30;;;;;;5014580;28;20025;-86
2021/10/03 08:20:00;;;;;;;4.38;4.18;;;15.60;81.30;;;;;;5030989;28;20419;-83
2021/10/03 08:22:26;;;;;;;4.22;4.03;;;15.60;81.30;;;;;;5064144;28;20032;-83
2021/10/03 08:24:52;;;;;;;4.25;4.05;;;15.60;81.40;;;;;;5032065;28;20503;-86
2021/10/03 08:27:18;;;;;;;4.47;4.28;;;15.60;81.30;;;;;;5030553;28;20029;-88
2021/10/03 08:29:44;;;;;;;3.92;3.72;;;15.70;81.40;;;;;;5029480;28;20048;-87
2021/10/03 08:32:10;;;;;;;4.55;4.35;;;15.70;81.30;;;;;;5031108;28;20037;-88
2021/10/03 08:34:36;;;;;;;4.30;4.10;;;15.70;81.20;;;;;;5030847;28;20040;-88
2021/10/03 08:37:03;;;;;;;4.70;4.50;;;15.80;81.20;;;;;;5032310;28;20034;-88
2021/10/03 08:39:29;;;;;;;4.70;4.50;;;15.80;81.10;;;;;;5031494;28;20029;-83
2021/10/03 08:41:55;;;;;;;5.35;5.15;;;15.80;81.80;;;;;;5029901;28;20049;-85
2021/10/03 08:44:21;;;;;;;5.75;5.47;;;15.90;81.10;;;;;;5028382;28;20029;-85
2021/10/03 08:46:48;;;;;;;5.50;5.30;;;15.90;81.00;;;;;;5030501;28;20411;-85
2021/10/03 08:49:15;;;;;;;5.00;4.80;;;15.90;80.90;;;;;;5032433;28;20025;-84
2021/10/03 08:51:47;;;;;;;4.30;4.10;;;16.00;81.00;;;;;;5030549;28;20491;-83
2021/10/03 08:54:16;;;;;;;7.72;7.32;;;16.00;80.80;;;;;;5015307;28;20030;-83
2021/10/03 08:56:43;;;;;;;9.10;8.70;;;16.00;80.70;;;;;;5028855;28;20054;-85
2021/10/03 08:59:09;;;;;;;6.85;6.55;;;16.10;80.70;;;;;;5030439;28;20471;-86
2021/10/03 09:01:49;;;;;;;5.50;5.30;;;16.10;80.70;;;;;;5025464;28;20041;-88
2021/10/03 09:04:29;;;;;;;7.00;6.07;;;16.00;80.70;;;;;;5031824;28;20022;-84
2021/10/03 09:07:02;;;;;;;6.20;5.90;;;16.10;80.70;;;;;;5048984;28;20040;-86
2021/10/03 09:10:07;;;;;;;5.03;4.82;;;16.10;80.70;;;;;;5063477;28;20034;-84
2021/10/03 09:12:36;;;;;;;4.50;4.30;;;16.10;80.70;;;;;;4989003;28;20027;-86
2021/10/03 09:15:16;;;;;;;4.20;4.00;;;16.10;80.50;;;;;;4972355;28;20054;-85
2021/10/03 09:17:48;;;;;;;4.00;3.80;;;16.10;80.50;;;;;;4993133;28;20552;-87
2021/10/03 09:20:22;;;;;;;5.15;4.95;;;16.10;80.60;;;;;;4974294;28;20521;-86
2021/10/03 09:22:55;;;;;;;5.53;5.22;;;16.10;80.70;;;;;;4974046;28;20038;-87
2021/10/03 09:25:45;;;;;;;4.40;4.20;;;16.20;80.60;;;;;;4973687;28;20038;-87
2021/10/03 09:28:16;;;;;;;4.33;4.13;;;16.20;80.40;;;;;;4987090;28;20057;-85
2021/10/03 09:30:54;;;;;;;5.60;5.35;;;16.30;80.30;;;;;;4973755;28;20050;-83
2021/10/03 09:33:20;;;;;;;4.90;4.70;;;16.40;80.30;;;;;;5006037;28;20057;-84
2021/10/03 09:35:55;;;;;;;3.70;3.50;;;16.40;80.10;;;;;;4990452;28;20053;-80
2021/10/03 09:38:21;;;;;;;3.90;3.70;;;16.50;79.90;;;;;;4974000;28;20034;-80
2021/10/03 09:41:05;;;;;;;4.03;3.83;;;16.60;79.90;;;;;;4982466;28;20046;-83
2021/10/03 09:43:42;;;;;;;3.70;3.50;;;16.60;79.80;;;;;;5003456;28;20480;-87
2021/10/03 09:46:08;;;;;;;4.28;4.07;;;16.70;79.70;;;;;;5026251;28;20037;-87
2021/10/03 09:48:50;;;;;;;4.30;4.10;;;16.80;79.60;;;;;;5030890;28;20040;-86
2021/10/03 09:51:17;;;;;;;4.20;4.00;;;16.90;79.50;;;;;;5054156;28;20038;-87
2021/10/03 09:53:44;;;;;;;4.47;4.28;;;16.90;79.30;;;;;;5030060;28;20040;-87
2021/10/03 09:56:10;;;;;;;4.75;4.55;;;17.00;79.20;;;;;;5030188;28;20483;-87
2021/10/03 09:58:37;;;;;;;5.20;5.00;;;17.10;79.10;;;;;;5013728;28;20030;-87
2021/10/03 10:01:03;;;;;;;6.25;5.95;;;17.10;79.00;;;;;;5030409;28;20542;-87
2021/10/03 10:03:31;;;;;;;6.30;6.00;;;17.20;78.90;;;;;;5031382;28;20036;-87
2021/10/03 10:05:57;;;;;;;6.32;6.03;;;17.20;78.80;;;;;;5030200;28;20036;-87
2021/10/03 10:08:24;;;;;;;5.80;5.50;;;17.20;78.80;;;;;;5030673;28;20036;-87
2021/10/03 10:10:52;;;;;;;6.05;5.75;;;17.10;78.80;;;;;;5013200;28;20041;-88
2021/10/03 10:13:19;;;;;;;7.88;6.30;;;17.10;78.80;;;;;;5013196;28;20024;-87
2021/10/03 10:15:45;;;;;;;5.90;5.60;;;17.10;78.80;;;;;;5029541;28;20026;-87
2021/10/03 10:18:25;;;;;;;6.32;6.03;;;17.20;79.00;;;;;;5029950;28;20038;-87
2021/10/03 10:20:53;;;;;;;6.05;5.75;;;17.20;78.80;;;;;;5031261;28;20491;-87
2021/10/03 10:23:26;;;;;;;5.75;5.45;;;17.30;78.70;;;;;;5026967;28;20041;-87
2021/10/03 10:25:54;;;;;;;5.82;5.53;;;17.30;78.60;;;;;;5030424;28;20037;-87
2021/10/03 10:28:29;;;;;;;5.60;5.35;;;17.40;78.50;;;;;;5030355;28;20033;-87
2021/10/03 10:31:14;;;;;;;5.95;5.65;;;17.40;78.30;;;;;;5026381;28;20045;-87
2021/10/03 10:33:53;;;;;;;5.75;5.45;;;17.40;78.20;;;;;;5029314;28;20056;-87
2021/10/03 10:36:23;;;;;;;5.75;5.45;;;17.50;78.20;;;;;;5029879;28;20025;-87
2021/10/03 10:39:07;;;;;;;5.40;5.20;;;17.50;78.10;;;;;;5029654;28;20045;-86
2021/10/03 10:41:41;;;;;;;5.80;5.53;;;17.50;77.90;;;;;;5030640;28;20060;-87
2021/10/03 10:44:29;;;;;;;6.05;5.75;;;17.50;77.90;;;;;;4996723;28;20037;-85
2021/10/03 10:47:14;;;;;;;5.93;5.63;;;17.50;77.90;;;;;;5028483;28;20037;-87
2021/10/03 10:49:44;;;;;;;6.15;5.85;;;17.60;77.90;;;;;;5029510;28;20494;-87
2021/10/03 10:52:19;;;;;;;6.38;6.07;;;17.60;77.80;;;;;;5030018;28;20045;-87
2021/10/03 10:55:06;;;;;;;6.28;5.97;;;17.60;77.60;;;;;;5030308;28;20041;-87
2021/10/03 10:57:33;;;;;;;6.40;6.10;;;17.70;77.60;;;;;;5011832;28;20052;-86
2021/10/03 11:00:18;;;;;;;6.15;5.85;;;17.70;77.40;;;;;;5029310;28;20519;-87
2021/10/03 11:02:58;;;;;;;6.28;5.97;;;17.70;77.40;;;;;;5027403;28;20053;-88
2021/10/03 11:05:46;;;;;;;6.43;6.13;;;17.70;77.20;;;;;;5029641;28;20025;-87
2021/10/03 11:08:21;;;;;;;6.57;6.28;;;17.70;77.20;;;;;;5030397;28;20369;-87
2021/10/03 11:10:57;;;;;;;6.10;5.80;;;17.60;77.10;;;;;;5012475;28;20404;-86
2021/10/03 11:13:39;;;;;;;6.15;5.85;;;17.60;77.10;;;;;;5030034;28;20032;-87
2021/10/03 11:16:29;;;;;;;20.05;5.93;;;17.70;77.10;;;;;;5053647;28;20040;-86
2021/10/03 11:18:59;;;;;;;5.72;5.45;;;17.70;76.90;;;;;;5021782;28;20049;-87
2021/10/03 11:21:29;;;;;;;6.30;5.93;;;17.80;76.70;;;;;;5028575;28;20025;-86
2021/10/03 11:23:56;;;;;;;6.30;6.00;;;17.90;76.60;;;;;;5029134;28;20021;-86
2021/10/03 11:26:23;;;;;;;6.45;6.13;;;18.00;76.40;;;;;;5031679;28;20025;-86
2021/10/03 11:28:50;;;;;;;6.60;6.30;;;18.00;76.30;;;;;;5030844;28;20034;-86
2021/10/03 11:31:56;;;;;;;6.38;6.07;;;17.90;76.10;;;;;;5033421;28;20029;-87
2021/10/03 11:34:37;;;;;;;6.30;6.00;;;18.00;76.10;;;;;;5031841;28;20048;-86
2021/10/03 11:37:07;;;;;;;6.35;6.05;;;18.00;76.10;;;;;;5032288;28;20045;-86
2021/10/03 11:39:52;;;;;;;6.50;6.20;;;18.10;75.90;;;;;;5032719;28;20366;-86
2021/10/03 11:42:34;;;;;;;6.97;6.65;;;18.20;75.60;;;;;;5030024;28;20499;-86
2021/10/03 11:45:17;;;;;;;6.28;5.97;;;18.20;75.50;;;;;;5031099;28;20499;-86
2021/10/03 11:47:53;;;;;;;6.43;6.13;;;18.30;75.50;;;;;;5047296;28;20116;-86
2021/10/03 11:50:23;;;;;;;6.43;6.13;;;18.40;75.30;;;;;;5032512;28;20033;-85
2021/10/03 11:52:51;;;;;;;7.85;7.47;;;18.60;74.80;;;;;;5033136;28;20488;-86
2021/10/03 11:55:18;;;;;;;8.05;7.65;;;18.70;74.40;;;;;;5033394;28;20018;-86
2021/10/03 11:57:48;;;;;;;7.45;7.15;;;18.80;74.20;;;;;;5032883;28;20027;-86
2021/10/03 12:00:19;;;;;;;8.32;7.93;;;18.90;74.00;;;;;;5032922;28;20049;-86
2021/10/03 12:02:50;;;;;;;8.32;7.93;;;19.00;73.80;;;;;;5032787;28;20038;-86
2021/10/03 12:05:27;;;;;;;8.50;8.10;;;19.00;73.60;;;;;;5015007;28;20066;-87
2021/10/03 12:08:10;;;;;;;7.93;7.55;;;19.10;73.40;;;;;;5031491;28;20044;-86
2021/10/03 12:10:36;;;;;;;8.80;8.40;;;19.10;73.40;;;;;;5015163;28;20040;-86
2021/10/03 12:13:23;;;;;;;9.75;9.25;;;19.10;73.30;;;;;;5032872;28;20041;-86
2021/10/03 12:15:54;;;;;;;8.45;8.05;;;19.20;73.10;;;;;;5045735;28;20025;-85
2021/10/03 12:18:29;;;;;;;10.43;8.70;;;19.20;73.00;;;;;;5031141;28;20041;-85
2021/10/03 12:20:58;;;;;;;9.13;8.73;;;19.30;72.80;;;;;;5032887;28;20033;-85
2021/10/03 12:24:05;;;;;;;8.68;8.27;;;19.40;72.50;;;;;;5032475;28;20025;-85
2021/10/03 12:26:48;;;;;;;10.07;9.63;;;19.40;72.20;;;;;;5000500;28;20045;-86
2021/10/03 12:29:27;;;;;;;9.00;8.60;;;19.40;72.10;;;;;;4987191;28;20519;-85
2021/10/03 12:31:56;;;;;;;9.48;9.07;;;19.40;71.90;;;;;;4989686;28;20050;-85
2021/10/03 12:34:22;;;;;;;8.60;8.20;;;19.30;72.00;;;;;;4989082;28;20046;-85
2021/10/03 12:36:54;;;;;;;11.35;9.35;;;19.30;72.00;;;;;;4998707;28;20034;-85
2021/10/03 12:39:30;;;;;;;9.90;9.40;;;19.40;71.90;;;;;;4991274;28;20033;-85
2021/10/03 12:42:01;;;;;;;10.25;9.77;;;19.40;71.60;;;;;;4975290;28;20046;-84
2021/10/03 12:44:33;;;;;;;10.25;9.77;;;19.50;71.40;;;;;;4975463;28;20412;-85
2021/10/03 12:47:00;;;;;;;10.05;9.57;;;19.50;71.10;;;;;;4974273;28;20065;-85
2021/10/03 12:49:26;;;;;;;10.18;9.68;;;19.60;70.90;;;;;;4974681;28;20413;-85
2021/10/03 12:51:52;;;;;;;11.60;10.95;;;19.60;70.70;;;;;;4978434;28;20081;-85
2021/10/03 12:54:18;;;;;;;10.63;10.13;;;19.60;70.60;;;;;;4991533;28;20130;-85